Time;durP1;ratioP1;P1;durP2;ratioP2;P2;SDS_P1;SDS_P2;PMS_P1;PMS_P2;Temp;Humidity;BMP_temperature;BMP_pressure;BME280_temperature;BME280_humidity;BME280_pressure;Samples;Min_cycle;Max_cycle;Signal;HPM_P1;HPM_P2
2024/03/09 00:00:45;;;;;;;35.85;16.92;;;;;;;3.47;100.00;95520.16;4989660;28;20417;-71
2024/03/09 00:03:11;;;;;;;34.22;18.02;;;;;;;3.45;100.00;95527.84;4976667;28;20041;-71
2024/03/09 00:05:41;;;;;;;35.80;17.45;;;;;;;3.47;100.00;95532.91;5004111;28;20044;-72
2024/03/09 00:08:08;;;;;;;36.03;18.60;;;;;;;3.38;100.00;95530.38;5012753;28;20100;-72
2024/03/09 00:10:34;;;;;;;34.00;17.67;;;;;;;3.20;100.00;95524.50;5002840;28;20042;-71
2024/03/09 00:13:00;;;;;;;37.75;17.70;;;;;;;3.19;100.00;95533.78;5017182;28;20041;-72
2024/03/09 00:15:28;;;;;;;36.58;18.02;;;;;;;3.27;100.00;95524.69;4990199;28;20129;-71
2024/03/09 00:17:57;;;;;;;31.20;16.60;;;;;;;3.37;100.00;95531.53;4984605;28;20066;-71
2024/03/09 00:20:26;;;;;;;34.72;18.30;;;;;;;3.36;100.00;95529.94;4999280;28;20504;-70
2024/03/09 00:22:53;;;;;;;36.85;19.35;;;;;;;3.24;100.00;95533.50;4989217;28;20529;-70
2024/03/09 00:25:22;;;;;;;35.20;17.58;;;;;;;3.25;100.00;95535.06;4976345;28;20712;-70
2024/03/09 00:27:54;;;;;;;39.92;18.33;;;;;;;3.28;100.00;95530.88;4996616;28;20499;-70
2024/03/09 00:30:20;;;;;;;40.70;18.80;;;;;;;3.36;100.00;95525.31;4996107;28;20060;-72
2024/03/09 00:32:51;;;;;;;36.45;19.00;;;;;;;3.41;100.00;95519.63;4985727;28;20049;-70
2024/03/09 00:35:17;;;;;;;39.00;19.08;;;;;;;3.47;100.00;95530.97;4996245;28;20392;-71
2024/03/09 00:37:43;;;;;;;38.88;19.30;;;;;;;3.53;100.00;95524.19;5013676;28;20057;-73
2024/03/09 00:40:10;;;;;;;42.38;20.17;;;;;;;3.25;100.00;95522.31;4988468;28;20038;-70
2024/03/09 00:42:36;;;;;;;36.60;18.58;;;;;;;3.28;100.00;95514.63;4992519;28;20038;-71
2024/03/09 00:45:06;;;;;;;42.92;19.33;;;;;;;3.23;100.00;95515.69;4982255;28;20133;-73
2024/03/09 00:47:34;;;;;;;35.75;18.10;;;;;;;2.96;100.00;95518.09;4979809;28;20045;-71
2024/03/09 00:50:00;;;;;;;37.28;18.83;;;;;;;2.95;100.00;95523.84;4982814;28;20074;-72
2024/03/09 00:52:26;;;;;;;43.10;19.48;;;;;;;2.96;100.00;95512.69;4976600;28;20073;-70
2024/03/09 00:54:55;;;;;;;43.05;19.60;;;;;;;2.87;100.00;95510.13;4981483;28;20141;-74
2024/03/09 00:57:21;;;;;;;40.60;20.08;;;;;;;2.98;100.00;95513.13;4976042;28;22363;-72
2024/03/09 00:59:47;;;;;;;39.05;19.40;;;;;;;2.72;100.00;95507.38;4989821;28;20468;-73
2024/03/09 01:02:14;;;;;;;42.22;20.13;;;;;;;2.65;100.00;95511.47;4977167;28;20141;-71
2024/03/09 01:04:39;;;;;;;47.15;21.55;;;;;;;2.67;100.00;95509.22;4982121;28;20038;-72
2024/03/09 01:07:05;;;;;;;43.80;20.38;;;;;;;2.63;100.00;95497.53;4991782;28;20038;-73
2024/03/09 01:09:30;;;;;;;39.30;20.35;;;;;;;2.68;100.00;95489.16;4982841;28;20404;-73
2024/03/09 01:11:56;;;;;;;40.30;20.35;;;;;;;2.68;100.00;95485.66;4983680;28;20048;-73
2024/03/09 01:14:23;;;;;;;42.22;20.15;;;;;;;2.49;100.00;95491.72;4993675;28;20418;-71
2024/03/09 01:16:50;;;;;;;38.55;20.13;;;;;;;2.72;100.00;95507.38;4990509;28;20049;-73
2024/03/09 01:19:16;;;;;;;40.25;19.95;;;;;;;2.93;100.00;95499.06;4976949;28;20073;-74
2024/03/09 01:21:41;;;;;;;38.88;20.50;;;;;;;2.73;100.00;95487.34;4991754;28;20137;-70
2024/03/09 01:24:08;;;;;;;44.17;21.00;;;;;;;2.59;100.00;95496.66;4981529;28;20696;-73
2024/03/09 01:26:34;;;;;;;47.70;20.27;;;;;;;2.61;100.00;95509.78;4985978;28;20054;-71
2024/03/09 01:28:59;;;;;;;43.35;20.35;;;;;;;2.69;100.00;95489.94;4980758;28;20533;-71
2024/03/09 01:31:28;;;;;;;42.40;21.70;;;;;;;2.76;100.00;95470.44;4975292;28;20084;-74
2024/03/09 01:33:55;;;;;;;43.65;21.55;;;;;;;3.13;100.00;95464.78;4980805;28;20038;-71
2024/03/09 01:36:20;;;;;;;40.65;20.42;;;;;;;3.00;100.00;95458.69;4985235;28;21141;-71
2024/03/09 01:38:48;;;;;;;44.13;21.77;;;;;;;2.87;100.00;95474.19;4995976;28;20042;-71
2024/03/09 01:41:14;;;;;;;43.97;19.85;;;;;;;3.06;100.00;95478.91;4985717;28;20048;-71
2024/03/09 01:43:40;;;;;;;42.33;20.40;;;;;;;2.96;100.00;95482.16;4997484;28;20046;-71
2024/03/09 01:46:07;;;;;;;41.92;20.52;;;;;;;3.11;100.00;95481.38;4979314;28;20513;-73
2024/03/09 01:48:33;;;;;;;39.22;19.98;;;;;;;3.11;100.00;95473.25;4995380;28;20094;-72
2024/03/09 01:50:59;;;;;;;46.33;22.55;;;;;;;3.02;100.00;95481.53;4994990;28;20065;-73
2024/03/09 01:53:25;;;;;;;51.83;24.83;;;;;;;2.95;100.00;95473.25;4981355;28;20030;-72
2024/03/09 01:55:51;;;;;;;39.90;20.38;;;;;;;2.93;100.00;95485.53;4990741;28;20632;-72
2024/03/09 01:58:19;;;;;;;43.65;20.63;;;;;;;2.95;100.00;95481.34;4984993;28;20038;-71
2024/03/09 02:00:54;;;;;;;41.78;20.35;;;;;;;2.86;100.00;95478.03;4993145;28;20049;-72
2024/03/09 02:03:22;;;;;;;39.80;20.27;;;;;;;2.99;100.00;95470.63;4986783;28;20052;-76
2024/03/09 02:05:50;;;;;;;41.42;20.25;;;;;;;3.08;100.00;95475.88;4987108;28;20078;-73
2024/03/09 02:08:17;;;;;;;42.67;20.80;;;;;;;3.03;100.00;95466.88;4992406;28;20042;-75
2024/03/09 02:10:42;;;;;;;43.33;20.95;;;;;;;2.92;100.00;95463.13;5015033;28;20407;-73
2024/03/09 02:13:08;;;;;;;40.13;19.40;;;;;;;2.74;100.00;95473.47;4994819;28;20042;-73
2024/03/09 02:15:34;;;;;;;42.17;20.55;;;;;;;2.60;100.00;95471.19;4978124;28;20049;-72
2024/03/09 02:18:02;;;;;;;39.92;19.92;;;;;;;2.36;100.00;95468.56;4987990;28;20060;-77
2024/03/09 02:20:30;;;;;;;43.22;21.50;;;;;;;2.13;100.00;95454.81;5023254;28;20551;-72
2024/03/09 02:22:58;;;;;;;41.03;21.08;;;;;;;1.80;100.00;95455.78;5011954;28;20049;-73
2024/03/09 02:25:27;;;;;;;48.28;22.73;;;;;;;1.62;100.00;95449.84;5000517;28;20058;-72
2024/03/09 02:27:52;;;;;;;49.70;23.10;;;;;;;1.64;100.00;95453.78;4996309;28;20046;-71
2024/03/09 02:30:21;;;;;;;50.55;23.17;;;;;;;1.59;100.00;95445.91;5004090;28;20352;-75
2024/03/09 02:32:52;;;;;;;48.88;22.73;;;;;;;1.60;100.00;95439.38;5028383;28;20034;-77
2024/03/09 02:35:17;;;;;;;53.95;24.20;;;;;;;1.57;100.00;95437.38;5000290;28;20409;-71
2024/03/09 02:37:43;;;;;;;50.58;23.35;;;;;;;1.55;100.00;95431.53;5000487;28;20563;-73
2024/03/09 02:40:11;;;;;;;53.95;23.75;;;;;;;1.51;100.00;95431.41;4993588;28;20038;-72
2024/03/09 02:43:03;;;;;;;46.58;23.15;;;;;;;1.52;100.00;95440.28;4996418;28;20038;-72
2024/03/09 02:45:27;;;;;;;57.58;28.50;;;;;;;1.57;100.00;95444.66;4993555;28;20046;-70
2024/03/09 02:47:53;;;;;;;54.67;24.35;;;;;;;1.63;100.00;95437.94;4998672;28;20064;-71
2024/03/09 02:50:18;;;;;;;51.85;23.45;;;;;;;1.73;100.00;95440.16;4994851;28;20034;-71
2024/03/09 02:52:45;;;;;;;48.30;22.63;;;;;;;1.77;100.00;95446.44;4999011;28;20416;-70
2024/03/09 02:55:11;;;;;;;47.42;22.15;;;;;;;1.76;100.00;95428.66;4993141;28;20724;-73
2024/03/09 02:57:37;;;;;;;49.22;23.38;;;;;;;1.73;100.00;95418.56;4999118;28;20089;-69
2024/03/09 03:00:06;;;;;;;48.50;23.02;;;;;;;1.61;100.00;95422.06;4995898;28;20262;-74
2024/03/09 03:05:16;;;;;;;49.90;24.05;;;;;;;1.59;100.00;95424.31;4994176;28;20063;-72
2024/03/09 03:07:42;;;;;;;45.95;23.83;;;;;;;1.51;100.00;95423.31;5010036;28;20042;-70
2024/03/09 03:10:08;;;;;;;46.60;23.38;;;;;;;1.49;100.00;95422.06;4995300;28;20103;-71
2024/03/09 03:12:33;;;;;;;50.35;23.88;;;;;;;1.49;100.00;95416.69;5002595;28;20108;-71
2024/03/09 03:15:01;;;;;;;48.40;22.90;;;;;;;1.47;100.00;95421.63;5001701;28;20427;-71
2024/03/09 03:17:27;;;;;;;47.17;23.60;;;;;;;1.43;100.00;95423.44;4987975;28;20038;-70
2024/03/09 03:19:53;;;;;;;45.45;21.73;;;;;;;1.40;100.00;95421.41;4982413;28;20057;-71
2024/03/09 03:22:19;;;;;;;45.40;22.23;;;;;;;1.47;100.00;95421.63;4991658;28;20034;-71
2024/03/09 03:24:45;;;;;;;46.80;22.38;;;;;;;1.50;100.00;95423.66;4996793;28;20390;-72
2024/03/09 03:27:10;;;;;;;43.33;20.98;;;;;;;1.50;100.00;95429.06;4983744;28;20054;-71
2024/03/09 03:29:36;;;;;;;47.20;23.20;;;;;;;1.48;100.00;95428.63;4993309;28;20046;-71
2024/03/09 03:32:02;;;;;;;46.58;23.23;;;;;;;1.45;100.00;95418.50;4999360;28;20041;-71
2024/03/09 03:34:28;;;;;;;47.97;24.00;;;;;;;1.37;100.00;95422.88;4999420;28;20048;-71
2024/03/09 03:36:53;;;;;;;48.40;24.00;;;;;;;1.33;100.00;95420.09;5003459;28;20060;-72
2024/03/09 03:39:19;;;;;;;46.28;23.83;;;;;;;1.26;100.00;95419.06;4984186;28;20046;-69
2024/03/09 03:41:44;;;;;;;48.30;23.70;;;;;;;1.19;100.00;95416.13;4987027;28;20057;-74
2024/03/09 03:44:10;;;;;;;46.38;22.90;;;;;;;1.27;100.00;95404.44;4983259;28;20568;-72
2024/03/09 03:46:37;;;;;;;48.58;22.70;;;;;;;1.37;100.00;95408.59;5001785;28;20131;-71
2024/03/09 03:49:03;;;;;;;48.08;22.73;;;;;;;1.34;100.00;95404.66;4998878;28;20537;-77
2024/03/09 03:51:29;;;;;;;48.88;24.15;;;;;;;1.19;100.00;95406.16;5002199;28;20455;-73
2024/03/09 03:53:56;;;;;;;42.63;22.25;;;;;;;1.19;100.00;95403.44;5017333;28;20175;-73
2024/03/09 03:56:24;;;;;;;49.70;23.45;;;;;;;1.19;100.00;95391.84;4998436;28;20616;-73
2024/03/09 03:58:51;;;;;;;54.38;24.02;;;;;;;1.02;100.00;95392.88;5007049;28;20596;-71
2024/03/09 04:01:16;;;;;;;52.70;25.95;;;;;;;0.86;100.00;95388.13;4996133;28;20046;-73
2024/03/09 04:03:42;;;;;;;47.50;24.13;;;;;;;0.80;100.00;95389.50;4999742;28;20030;-72
2024/03/09 04:06:08;;;;;;;52.53;25.52;;;;;;;0.87;100.00;95392.41;4985539;28;20139;-71
2024/03/09 04:08:34;;;;;;;55.72;23.75;;;;;;;0.83;100.00;95393.41;4987221;28;20037;-72
2024/03/09 04:11:02;;;;;;;52.80;26.52;;;;;;;0.81;100.00;95393.78;5003810;28;20034;-70
2024/03/09 04:13:28;;;;;;;48.47;24.10;;;;;;;0.83;100.00;95390.72;4977179;28;20037;-74
2024/03/09 04:15:53;;;;;;;53.17;23.77;;;;;;;0.93;100.00;95380.28;5013026;28;20049;-74
2024/03/09 04:18:21;;;;;;;54.25;24.95;;;;;;;0.93;100.00;95374.88;4990712;28;20501;-72
2024/03/09 04:20:47;;;;;;;52.78;25.70;;;;;;;0.77;100.00;95379.38;4993735;28;20045;-72
2024/03/09 04:23:16;;;;;;;54.00;25.67;;;;;;;0.83;100.00;95372.66;4981262;28;20139;-72
2024/03/09 04:25:46;;;;;;;55.88;27.05;;;;;;;0.82;100.00;95389.16;5004653;28;20056;-72
2024/03/09 04:28:15;;;;;;;56.90;27.55;;;;;;;0.76;100.00;95375.13;4999032;28;20045;-73
2024/03/09 04:30:42;;;;;;;;;;;;;;;0.80;100.00;95359.84;5002000;28;20092;-72
2024/03/09 04:33:11;;;;;;;59.92;28.73;;;;;;;0.91;100.00;95360.19;4995876;28;19957;-74
2024/03/09 04:35:37;;;;;;;54.38;25.15;;;;;;;0.92;100.00;95356.38;5005693;28;20061;-73
2024/03/09 04:38:04;;;;;;;54.47;27.98;;;;;;;0.88;100.00;95358.97;4994465;28;20042;-76
2024/03/09 04:40:30;;;;;;;56.10;27.88;;;;;;;0.95;100.00;95363.78;5000893;28;20061;-72
2024/03/09 04:42:56;;;;;;;55.97;27.67;;;;;;;0.92;100.00;95364.47;4994913;28;20049;-70
2024/03/09 04:45:25;;;;;;;57.35;27.42;;;;;;;0.93;100.00;95360.63;4989064;28;20522;-70
2024/03/09 04:47:51;;;;;;;54.47;27.63;;;;;;;0.95;100.00;95363.78;5005140;28;20050;-72
2024/03/09 04:50:21;;;;;;;54.75;26.10;;;;;;;0.80;100.00;95369.84;4992174;28;20065;-71
2024/03/09 04:52:47;;;;;;;52.17;26.52;;;;;;;0.71;100.00;95369.94;4994514;28;20034;-72
2024/03/09 04:55:16;;;;;;;60.80;26.65;;;;;;;0.75;100.00;95357.38;4996505;28;20312;-71
2024/03/09 04:57:43;;;;;;;57.53;26.75;;;;;;;0.79;100.00;95355.56;4981830;28;20030;-71
2024/03/09 05:00:14;;;;;;;57.63;27.38;;;;;;;0.79;100.00;95363.66;5003692;28;20042;-72
2024/03/09 05:02:49;;;;;;;48.85;25.52;;;;;;;0.93;100.00;95357.94;4988239;28;20080;-73
2024/03/09 05:05:18;;;;;;;54.35;28.20;;;;;;;0.99;100.00;95361.19;4974182;28;20052;-72
2024/03/09 05:07:49;;;;;;;56.55;26.33;;;;;;;0.90;100.00;95370.19;4988355;28;20393;-71
2024/03/09 05:10:19;;;;;;;49.33;24.65;;;;;;;0.91;100.00;95370.97;4996159;28;20042;-74
2024/03/09 05:12:53;;;;;;;53.35;24.25;;;;;;;0.98;100.00;95371.19;5003351;28;20048;-73
2024/03/09 05:15:23;;;;;;;53.92;25.55;;;;;;;1.09;100.00;95364.22;4978530;28;20042;-72
2024/03/09 05:17:48;;;;;;;52.65;24.38;;;;;;;1.16;100.00;95371.75;5000033;28;20057;-73
2024/03/09 05:20:20;;;;;;;51.70;24.20;;;;;;;1.13;100.00;95369.72;4993912;28;20041;-72
2024/03/09 05:22:50;;;;;;;47.05;23.45;;;;;;;1.14;100.00;95376.69;4974003;28;20053;-71
2024/03/09 05:25:15;;;;;;;;;;;;;;;1.12;100.00;95373.56;4982531;28;20728;-72
2024/03/09 05:27:42;;;;;;;49.28;21.58;;;;;;;1.13;100.00;95377.81;4986021;28;19944;-74
2024/03/09 05:30:16;;;;;;;45.13;22.73;;;;;;;0.93;100.00;95379.50;4990840;28;20093;-72
2024/03/09 05:32:42;;;;;;;46.22;22.20;;;;;;;0.20;100.00;95378.25;4992921;28;20045;-69
2024/03/09 05:35:13;;;;;;;55.45;25.00;;;;;;;-0.04;100.00;95390.53;4989478;28;20043;-70
2024/03/09 05:37:39;;;;;;;54.97;26.17;;;;;;;-0.13;100.00;95379.03;5000272;28;20050;-69
2024/03/09 05:40:09;;;;;;;53.92;24.67;;;;;;;-0.09;100.00;95363.00;4996849;28;20037;-70
2024/03/09 05:42:36;;;;;;;55.22;24.92;;;;;;;0.14;100.00;95363.41;4991807;28;20129;-70
2024/03/09 05:45:09;;;;;;;55.60;23.88;;;;;;;0.23;100.00;95366.81;4984719;28;20491;-76
2024/03/09 05:47:35;;;;;;;55.67;25.17;;;;;;;0.36;100.00;95365.75;4983560;28;20042;-70
2024/03/09 05:50:01;;;;;;;53.13;24.55;;;;;;;0.47;100.00;95368.00;5003054;28;20041;-71
2024/03/09 05:52:26;;;;;;;49.35;22.75;;;;;;;0.52;100.00;95362.38;4997108;28;20056;-71
2024/03/09 05:54:52;;;;;;;44.22;22.50;;;;;;;0.50;100.00;95361.94;5001041;28;20042;-69
2024/03/09 05:57:22;;;;;;;47.78;23.17;;;;;;;0.17;100.00;95355.47;4980656;28;20057;-69
2024/03/09 05:59:49;;;;;;;51.00;23.27;;;;;;;0.12;100.00;95352.19;4991039;28;20042;-70
2024/03/09 06:02:14;;;;;;;56.55;24.73;;;;;;;0.07;100.00;95357.78;4995953;28;20041;-70
2024/03/09 06:04:40;;;;;;;53.70;23.67;;;;;;;0.14;100.00;95347.28;5000301;28;20037;-70
2024/03/09 06:07:06;;;;;;;52.17;24.95;;;;;;;0.43;100.00;95351.72;4992055;28;20050;-71
2024/03/09 06:09:31;;;;;;;52.92;24.27;;;;;;;0.65;100.00;95366.69;4999048;28;20489;-70
2024/03/09 06:11:57;;;;;;;52.28;24.10;;;;;;;0.84;100.00;95355.34;4999374;28;20042;-71
2024/03/09 06:14:23;;;;;;;56.83;25.10;;;;;;;1.05;100.00;95354.47;4992487;28;20115;-69
2024/03/09 06:16:49;;;;;;;50.28;23.10;;;;;;;1.26;100.00;95357.00;4997111;28;20511;-69
2024/03/09 06:19:14;;;;;;;51.65;22.65;;;;;;;1.46;100.00;95363.38;5001866;28;20042;-69
2024/03/09 06:21:40;;;;;;;48.88;23.77;;;;;;;2.07;100.00;95359.72;5005117;28;20040;-68
2024/03/09 06:24:05;;;;;;;43.83;21.30;;;;;;;2.82;100.00;95356.25;4994552;28;20108;-70
2024/03/09 06:26:31;;;;;;;41.38;20.55;;;;;;;3.67;100.00;95357.78;5004606;28;20129;-71
2024/03/09 06:28:56;;;;;;;35.65;19.17;;;;;;;3.94;100.00;95339.75;5000556;28;20604;-70
2024/03/09 06:31:22;;;;;;;34.53;17.10;;;;;;;4.16;100.00;95346.38;4994603;28;20045;-70
2024/03/09 06:33:47;;;;;;;36.38;17.85;;;;;;;3.94;100.00;95351.38;4998546;28;20124;-71
2024/03/09 06:36:13;;;;;;;31.55;17.08;;;;;;;3.66;100.00;95356.22;4996689;28;20048;-70
2024/03/09 06:38:40;;;;;;;33.33;18.20;;;;;;;3.55;100.00;95354.06;5000111;28;20079;-71
2024/03/09 06:41:07;;;;;;;38.10;18.23;;;;;;;3.38;100.00;95347.09;4986336;28;20100;-70
2024/03/09 06:43:33;;;;;;;34.72;18.10;;;;;;;3.19;100.00;95344.38;5003196;28;20042;-71
2024/03/09 06:46:00;;;;;;;38.95;19.27;;;;;;;3.12;100.00;95344.19;5005227;28;20046;-70
2024/03/09 06:48:27;;;;;;;39.97;19.35;;;;;;;3.49;100.00;95341.16;4999252;28;20050;-71
2024/03/09 06:50:53;;;;;;;36.38;18.23;;;;;;;3.78;100.00;95337.09;5003903;28;20158;-71
2024/03/09 06:53:20;;;;;;;37.33;18.85;;;;;;;3.93;100.00;95338.19;4997714;28;20381;-71
2024/03/09 06:55:46;;;;;;;31.75;17.98;;;;;;;3.99;100.00;95334.81;5003099;28;20472;-69
2024/03/09 06:58:12;;;;;;;38.05;19.13;;;;;;;4.57;100.00;95333.97;4998778;28;20069;-69
2024/03/09 07:00:38;;;;;;;35.83;17.92;;;;;;;5.04;100.00;95340.16;5002537;28;20065;-69
2024/03/09 07:03:07;;;;;;;29.67;16.05;;;;;;;5.66;100.00;95336.41;4998589;28;20133;-72
2024/03/09 07:05:35;;;;;;;32.92;16.95;;;;;;;7.20;100.00;95345.41;5001938;28;20038;-69
2024/03/09 07:08:05;;;;;;;33.83;17.20;;;;;;;7.74;100.00;95340.28;5001339;28;20041;-72
2024/03/09 07:10:32;;;;;;;32.00;17.95;;;;;;;8.03;100.00;95355.66;5026213;28;20429;-69
2024/03/09 07:12:58;;;;;;;27.42;16.65;;;;;;;8.55;100.00;95350.00;5026112;28;20034;-70
2024/03/09 07:15:25;;;;;;;30.45;17.40;;;;;;;8.60;100.00;95357.78;4997444;28;20524;-69
2024/03/09 07:17:55;;;;;;;29.55;17.25;;;;;;;9.80;88.32;95364.84;5002610;28;20037;-71
2024/03/09 07:20:23;;;;;;;30.67;16.67;;;;;;;10.51;82.46;95369.34;4980195;28;20061;-68
2024/03/09 07:22:50;;;;;;;26.98;16.80;;;;;;;10.87;73.29;95377.34;5002668;28;20046;-71
2024/03/09 07:25:23;;;;;;;26.85;16.33;;;;;;;11.39;74.91;95373.84;4998288;28;20087;-70
2024/03/09 07:27:49;;;;;;;29.58;16.27;;;;;;;10.68;71.06;95378.63;4997263;28;20049;-71
2024/03/09 07:30:14;;;;;;;31.05;17.13;;;;;;;11.18;72.96;95372.06;4997031;28;20034;-71
2024/03/09 07:32:44;;;;;;;29.80;16.92;;;;;;;12.76;65.51;95367.69;5002537;28;20568;-73
2024/03/09 07:35:14;;;;;;;27.77;15.95;;;;;;;13.53;60.83;95365.41;4999679;28;20081;-70
2024/03/09 07:37:55;;;;;;;27.95;17.90;;;;;;;10.18;73.35;95367.88;5002191;28;20512;-71
2024/03/09 07:40:29;;;;;;;31.75;19.42;;;;;;;10.70;80.91;95354.38;5001430;28;20550;-71
2024/03/09 07:42:55;;;;;;;27.90;17.30;;;;;;;9.46;90.29;95348.13;5002725;28;20045;-72
2024/03/09 07:45:22;;;;;;;30.77;16.92;;;;;;;11.70;75.64;95362.22;4995796;28;21767;-73
2024/03/09 07:47:49;;;;;;;29.02;16.17;;;;;;;11.98;70.58;95372.16;5003259;28;20046;-72
2024/03/09 07:50:21;;;;;;;27.27;16.75;;;;;;;11.76;71.29;95366.09;4986862;28;20046;-71
2024/03/09 07:52:54;;;;;;;28.23;16.27;;;;;;;11.84;73.20;95362.09;4996843;28;20038;-71
2024/03/09 07:55:22;;;;;;;29.10;17.48;;;;;;;12.24;64.02;95360.50;4994930;28;20038;-69
2024/03/09 07:57:48;;;;;;;27.90;17.67;;;;;;;12.11;65.87;95364.19;4986701;28;20166;-70
2024/03/09 08:00:22;;;;;;;27.15;17.42;;;;;;;11.28;69.75;95360.22;4978111;28;20042;-70
2024/03/09 08:02:49;;;;;;;29.17;18.05;;;;;;;11.22;72.26;95361.84;4988297;28;20104;-70
2024/03/09 08:05:19;;;;;;;30.77;18.70;;;;;;;12.42;66.29;95368.53;4996964;28;20048;-72
2024/03/09 08:07:49;;;;;;;28.23;17.27;;;;;;;13.67;64.19;95365.16;4999889;28;20037;-69
2024/03/09 08:10:19;;;;;;;25.13;16.08;;;;;;;15.04;58.14;95368.81;4994859;28;20042;-71
2024/03/09 08:12:45;;;;;;;24.63;15.73;;;;;;;15.28;52.57;95371.41;4982733;28;20174;-69
2024/03/09 08:15:14;;;;;;;27.67;17.48;;;;;;;13.67;58.17;95373.44;4977338;28;20095;-72
2024/03/09 08:17:40;;;;;;;25.80;16.63;;;;;;;13.22;63.62;95362.72;4981348;28;20077;-72
2024/03/09 08:20:06;;;;;;;35.67;18.13;;;;;;;12.47;65.83;95358.28;4978051;28;20054;-72
2024/03/09 08:22:41;;;;;;;25.27;17.30;;;;;;;12.56;62.46;95364.03;4995856;28;20551;-70
2024/03/09 08:25:07;;;;;;;34.30;17.83;;;;;;;12.94;65.13;95348.22;4977681;28;20066;-70
2024/03/09 08:27:34;;;;;;;30.00;17.05;;;;;;;10.57;76.45;95345.06;4993942;28;20100;-69
2024/03/09 08:30:03;;;;;;;29.20;17.88;;;;;;;10.35;85.00;95344.38;5001263;28;20072;-72
2024/03/09 08:32:29;;;;;;;30.48;17.42;;;;;;;11.29;78.83;95334.38;4995880;28;20046;-69
2024/03/09 08:34:55;;;;;;;27.67;16.95;;;;;;;8.96;95.34;95324.31;4981340;28;20061;-71
2024/03/09 08:37:20;;;;;;;31.20;17.77;;;;;;;10.52;89.49;95323.56;4979968;28;20661;-69
2024/03/09 08:39:46;;;;;;;30.08;17.55;;;;;;;11.86;78.44;95319.31;4986579;28;20482;-72
2024/03/09 08:42:12;;;;;;;31.00;16.45;;;;;;;13.20;71.72;95326.63;4977292;28;20409;-69
2024/03/09 08:44:39;;;;;;;25.13;15.07;;;;;;;14.82;59.06;95332.66;5000756;28;20046;-70
2024/03/09 08:47:05;;;;;;;26.38;14.75;;;;;;;14.90;57.64;95333.28;4994881;28;20045;-70
2024/03/09 08:49:31;;;;;;;22.17;14.13;;;;;;;16.21;55.18;95333.19;5000640;28;20092;-69
2024/03/09 08:51:57;;;;;;;24.75;14.88;;;;;;;16.54;52.72;95335.06;4991050;28;20088;-70
2024/03/09 08:54:23;;;;;;;22.10;12.88;;;;;;;17.65;47.28;95353.03;5002584;28;20042;-72
2024/03/09 08:56:55;;;;;;;23.88;14.77;;;;;;;16.74;49.51;95354.97;4989158;28;20039;-71
2024/03/09 08:59:21;;;;;;;26.05;15.45;;;;;;;16.39;49.15;95352.03;4983666;28;20537;-71
2024/03/09 09:01:48;;;;;;;25.90;15.77;;;;;;;16.49;49.88;95341.13;4980708;28;20122;-72
2024/03/09 09:04:14;;;;;;;23.27;14.50;;;;;;;16.60;48.72;95345.13;4991307;28;20046;-71
2024/03/09 09:06:39;;;;;;;22.85;14.75;;;;;;;15.75;50.78;95348.22;5001790;28;20193;-75
2024/03/09 09:09:09;;;;;;;24.42;15.23;;;;;;;15.36;51.92;95336.94;4997193;28;20053;-72
2024/03/09 09:11:35;;;;;;;24.42;14.40;;;;;;;15.40;53.29;95334.09;4997016;28;20038;-72
2024/03/09 09:14:03;;;;;;;27.48;16.73;;;;;;;14.55;54.67;95324.56;5001106;28;20038;-76
2024/03/09 09:16:29;;;;;;;27.35;16.40;;;;;;;13.49;56.38;95326.97;4995700;28;20432;-73
2024/03/09 09:18:57;;;;;;;25.77;15.55;;;;;;;15.27;55.18;95320.22;4987880;28;20188;-70
2024/03/09 09:21:22;;;;;;;27.55;16.15;;;;;;;15.94;51.25;95316.19;4981383;28;20045;-70
2024/03/09 09:23:48;;;;;;;26.10;16.70;;;;;;;15.17;52.79;95308.22;4993851;28;20046;-70
2024/03/09 09:26:14;;;;;;;27.73;17.45;;;;;;;15.03;52.82;95303.81;4996087;28;20049;-70
2024/03/09 09:28:39;;;;;;;26.73;16.60;;;;;;;15.88;52.30;95299.38;5003938;28;20041;-72
2024/03/09 09:31:05;;;;;;;28.42;18.35;;;;;;;15.88;51.08;95293.84;4993503;28;20398;-70
2024/03/09 09:33:30;;;;;;;33.05;19.55;;;;;;;14.87;54.30;95276.25;5000993;28;20065;-71
2024/03/09 09:35:55;;;;;;;27.67;17.10;;;;;;;15.96;51.77;95275.13;4995523;28;20042;-70
2024/03/09 09:38:21;;;;;;;30.25;18.10;;;;;;;16.18;50.33;95278.81;4995529;28;20049;-70
2024/03/09 09:40:49;;;;;;;30.88;17.67;;;;;;;16.89;49.53;95274.41;5003177;28;20034;-72
2024/03/09 09:43:14;;;;;;;25.80;16.83;;;;;;;17.12;48.91;95267.75;4986632;28;20078;-71
2024/03/09 09:45:44;;;;;;;30.10;18.17;;;;;;;16.70;51.42;95268.63;5001270;28;20080;-70
2024/03/09 09:48:10;;;;;;;28.77;17.67;;;;;;;17.39;49.47;95268.06;4984389;28;20589;-69
2024/03/09 09:50:36;;;;;;;26.30;16.77;;;;;;;16.84;51.40;95252.84;5005907;28;20046;-70
2024/03/09 09:53:07;;;;;;;26.95;17.13;;;;;;;17.06;50.50;95248.19;4998524;28;20041;-76
2024/03/09 09:55:35;;;;;;;27.83;17.20;;;;;;;16.06;52.73;95238.13;5001550;28;20041;-70
2024/03/09 09:58:00;;;;;;;26.73;16.63;;;;;;;16.70;51.61;95245.75;5000103;28;20037;-69
2024/03/09 10:00:26;;;;;;;29.88;18.10;;;;;;;16.19;52.69;95244.47;4995364;28;20057;-73
2024/03/09 10:02:58;;;;;;;29.20;18.00;;;;;;;15.34;55.74;95234.53;5001742;28;20068;-71
2024/03/09 10:05:28;;;;;;;29.08;17.10;;;;;;;16.16;55.02;95228.00;5003609;28;20124;-69
2024/03/09 10:08:09;;;;;;;28.17;17.17;;;;;;;16.25;54.05;95220.59;4999781;28;20042;-72
2024/03/09 10:10:43;;;;;;;29.73;16.48;;;;;;;15.58;56.20;95217.75;5002441;28;20076;-70
2024/03/09 10:13:11;;;;;;;25.92;15.57;;;;;;;15.79;56.66;95219.97;4993029;28;20373;-71
2024/03/09 10:15:40;;;;;;;26.52;16.42;;;;;;;15.98;56.72;95204.44;4980392;28;20045;-73
2024/03/09 10:18:06;;;;;;;28.80;15.85;;;;;;;16.35;55.91;95204.94;4973870;28;20042;-75
2024/03/09 10:20:34;;;;;;;27.50;16.50;;;;;;;16.90;54.38;95204.81;4997999;28;20080;-71
2024/03/09 10:23:04;;;;;;;29.75;15.93;;;;;;;17.45;53.66;95212.09;4992081;28;20037;-68
2024/03/09 10:25:31;;;;;;;;;;;;;;;16.98;54.80;95206.16;4998832;28;20038;-71
2024/03/09 10:28:00;;;;;;;30.45;17.13;;;;;;;17.13;54.37;95200.91;5004150;28;19964;-71
2024/03/09 10:30:26;;;;;;;28.67;15.82;;;;;;;16.78;53.43;95191.75;4991611;28;20541;-70
2024/03/09 10:32:56;;;;;;;26.67;14.75;;;;;;;16.95;52.41;95182.16;4992084;28;20066;-70
2024/03/09 10:35:23;;;;;;;22.42;13.95;;;;;;;17.48;51.26;95181.53;4972523;28;21000;-70
2024/03/09 10:37:51;;;;;;;22.88;14.57;;;;;;;18.24;49.60;95195.47;4982709;28;20048;-71
2024/03/09 10:40:20;;;;;;;20.70;12.63;;;;;;;17.83;47.05;95187.03;4967581;28;20034;-70
2024/03/09 10:42:49;;;;;;;13.60;8.57;;;;;;;16.50;46.68;95185.16;4983414;28;20052;-69
2024/03/09 10:45:19;;;;;;;12.87;8.20;;;;;;;17.63;45.65;95183.81;4973383;28;20038;-70
2024/03/09 10:47:55;;;;;;;17.95;10.63;;;;;;;17.77;45.27;95175.78;4979823;28;20321;-70
2024/03/09 10:50:28;;;;;;;12.35;8.23;;;;;;;17.83;45.45;95164.13;4974469;28;20034;-70
2024/03/09 10:53:09;;;;;;;11.15;6.78;;;;;;;17.58;42.43;95169.31;4978401;28;20513;-71
2024/03/09 10:55:50;;;;;;;15.73;9.48;;;;;;;18.32;44.13;95166.25;4979191;28;20501;-71
2024/03/09 10:58:17;;;;;;;19.48;11.77;;;;;;;18.61;46.70;95157.59;4975065;28;20078;-69
2024/03/09 11:00:49;;;;;;;12.02;7.70;;;;;;;18.85;39.89;95165.38;4979006;28;20498;-70
2024/03/09 11:03:21;;;;;;;7.43;4.80;;;;;;;16.65;41.21;95155.84;4973412;28;20042;-72
2024/03/09 11:05:48;;;;;;;6.57;3.75;;;;;;;16.18;41.88;95154.53;4978759;28;20043;-70
2024/03/09 11:08:14;;;;;;;6.43;3.45;;;;;;;15.95;42.54;95149.31;4974127;28;20049;-70
2024/03/09 11:10:43;;;;;;;7.13;3.20;;;;;;;15.65;41.45;95145.81;4979689;28;20070;-70
2024/03/09 11:13:10;;;;;;;17.35;9.95;;;;;;;16.65;50.24;95128.19;4982177;28;20046;-69
2024/03/09 11:15:39;;;;;;;14.63;7.78;;;;;;;16.49;46.95;95136.63;4986753;28;20125;-72
2024/03/09 11:18:09;;;;;;;10.27;5.15;;;;;;;15.67;42.75;95138.63;4975208;28;20077;-70
2024/03/09 11:20:48;;;;;;;15.05;8.50;;;;;;;15.84;49.04;95125.53;4979015;28;20049;-71
2024/03/09 11:23:14;;;;;;;9.77;4.97;;;;;;;16.40;43.37;95126.22;4965898;28;20129;-68